sensor_id;sensor_type;location;lat;lon;timestamp;temperature;humidity
43808;DHT22;29438;50.664;10.098;2022-07-01T00:00:13;18.70;74.20
43808;DHT22;29438;50.664;10.098;2022-07-01T00:02:39;18.60;74.60
43808;DHT22;29438;50.664;10.098;2022-07-01T00:05:05;18.60;74.50
43808;DHT22;29438;50.664;10.098;2022-07-01T00:07:30;18.60;74.60
43808;DHT22;29438;50.664;10.098;2022-07-01T00:09:56;18.60;74.30
43808;DHT22;29438;50.664;10.098;2022-07-01T00:12:21;18.60;74.40
43808;DHT22;29438;50.664;10.098;2022-07-01T00:14:47;18.60;74.20
43808;DHT22;29438;50.664;10.098;2022-07-01T00:17:12;18.60;74.40
43808;DHT22;29438;50.664;10.098;2022-07-01T00:19:38;18.50;74.60
43808;DHT22;29438;50.664;10.098;2022-07-01T00:22:03;18.40;74.80
43808;DHT22;29438;50.664;10.098;2022-07-01T00:24:29;18.40;75.00
43808;DHT22;29438;50.664;10.098;2022-07-01T00:26:54;18.50;74.80
43808;DHT22;29438;50.664;10.098;2022-07-01T00:29:20;18.50;74.80
43808;DHT22;29438;50.664;10.098;2022-07-01T00:31:46;18.40;75.10
43808;DHT22;29438;50.664;10.098;2022-07-01T00:34:11;18.40;75.10
43808;DHT22;29438;50.664;10.098;2022-07-01T00:36:37;18.40;75.30
43808;DHT22;29438;50.664;10.098;2022-07-01T00:39:03;18.30;75.40
43808;DHT22;29438;50.664;10.098;2022-07-01T00:41:28;18.20;76.00
43808;DHT22;29438;50.664;10.098;2022-07-01T00:43:54;18.20;76.10
43808;DHT22;29438;50.664;10.098;2022-07-01T00:46:20;18.10;76.40
43808;DHT22;29438;50.664;10.098;2022-07-01T00:48:46;17.90;77.00
43808;DHT22;29438;50.664;10.098;2022-07-01T00:51:18;17.80;77.20
43808;DHT22;29438;50.664;10.098;2022-07-01T00:53:44;17.80;77.20
43808;DHT22;29438;50.664;10.098;2022-07-01T00:56:10;17.70;77.50
43808;DHT22;29438;50.664;10.098;2022-07-01T00:58:36;17.70;77.80
43808;DHT22;29438;50.664;10.098;2022-07-01T01:01:02;17.60;77.80
43808;DHT22;29438;50.664;10.098;2022-07-01T01:03:28;17.50;78.10
43808;DHT22;29438;50.664;10.098;2022-07-01T01:05:54;17.40;78.50
43808;DHT22;29438;50.664;10.098;2022-07-01T01:08:22;17.30;78.60
43808;DHT22;29438;50.664;10.098;2022-07-01T01:10:48;17.30;78.60
43808;DHT22;29438;50.664;10.098;2022-07-01T01:13:13;17.30;78.90
43808;DHT22;29438;50.664;10.098;2022-07-01T01:15:39;17.20;78.80
43808;DHT22;29438;50.664;10.098;2022-07-01T01:18:05;17.20;78.50
43808;DHT22;29438;50.664;10.098;2022-07-01T01:20:38;17.20;78.40
43808;DHT22;29438;50.664;10.098;2022-07-01T01:23:04;17.30;78.40
43808;DHT22;29438;50.664;10.098;2022-07-01T01:25:31;17.20;78.50
43808;DHT22;29438;50.664;10.098;2022-07-01T01:27:57;17.10;78.70
43808;DHT22;29438;50.664;10.098;2022-07-01T01:30:22;17.00;78.90
43808;DHT22;29438;50.664;10.098;2022-07-01T01:32:48;17.00;78.90
43808;DHT22;29438;50.664;10.098;2022-07-01T01:35:15;16.90;79.00
43808;DHT22;29438;50.664;10.098;2022-07-01T01:37:41;16.80;79.60
43808;DHT22;29438;50.664;10.098;2022-07-01T01:40:07;16.90;79.40
43808;DHT22;29438;50.664;10.098;2022-07-01T01:42:33;16.80;79.50
43808;DHT22;29438;50.664;10.098;2022-07-01T01:44:58;16.80;79.60
43808;DHT22;29438;50.664;10.098;2022-07-01T01:47:24;16.70;79.70
43808;DHT22;29438;50.664;10.098;2022-07-01T01:49:49;16.60;80.20
43808;DHT22;29438;50.664;10.098;2022-07-01T01:52:15;16.60;79.80
43808;DHT22;29438;50.664;10.098;2022-07-01T01:54:40;16.70;79.60
43808;DHT22;29438;50.664;10.098;2022-07-01T01:57:06;16.70;79.40
43808;DHT22;29438;50.664;10.098;2022-07-01T01:59:32;16.60;79.50
43808;DHT22;29438;50.664;10.098;2022-07-01T02:01:57;16.60;79.70
43808;DHT22;29438;50.664;10.098;2022-07-01T02:04:23;16.50;80.20
43808;DHT22;29438;50.664;10.098;2022-07-01T02:06:50;16.30;80.30
43808;DHT22;29438;50.664;10.098;2022-07-01T02:09:16;16.20;80.80
43808;DHT22;29438;50.664;10.098;2022-07-01T02:11:41;16.20;80.80
43808;DHT22;29438;50.664;10.098;2022-07-01T02:14:07;16.30;80.90
43808;DHT22;29438;50.664;10.098;2022-07-01T02:16:32;16.30;80.90
43808;DHT22;29438;50.664;10.098;2022-07-01T02:18:58;16.30;80.30
43808;DHT22;29438;50.664;10.098;2022-07-01T02:21:23;16.40;80.10
43808;DHT22;29438;50.664;10.098;2022-07-01T02:23:49;16.30;79.90
43808;DHT22;29438;50.664;10.098;2022-07-01T02:26:17;16.20;79.60
43808;DHT22;29438;50.664;10.098;2022-07-01T02:28:42;16.30;79.20
43808;DHT22;29438;50.664;10.098;2022-07-01T02:31:08;16.10;79.40
43808;DHT22;29438;50.664;10.098;2022-07-01T02:33:33;16.00;79.70
43808;DHT22;29438;50.664;10.098;2022-07-01T02:35:59;15.90;79.40
43808;DHT22;29438;50.664;10.098;2022-07-01T02:38:24;15.90;79.50
43808;DHT22;29438;50.664;10.098;2022-07-01T02:40:50;15.80;79.60
43808;DHT22;29438;50.664;10.098;2022-07-01T02:43:15;15.80;79.30
43808;DHT22;29438;50.664;10.098;2022-07-01T02:45:41;15.70;79.50
43808;DHT22;29438;50.664;10.098;2022-07-01T02:48:07;15.80;79.70
43808;DHT22;29438;50.664;10.098;2022-07-01T02:50:33;15.80;79.50
43808;DHT22;29438;50.664;10.098;2022-07-01T02:52:58;15.70;79.60
43808;DHT22;29438;50.664;10.098;2022-07-01T02:55:24;15.60;79.80
43808;DHT22;29438;50.664;10.098;2022-07-01T02:57:50;15.60;79.80
43808;DHT22;29438;50.664;10.098;2022-07-01T03:00:18;15.70;80.00
43808;DHT22;29438;50.664;10.098;2022-07-01T03:02:44;15.60;80.10
43808;DHT22;29438;50.664;10.098;2022-07-01T03:05:10;15.50;80.20
43808;DHT22;29438;50.664;10.098;2022-07-01T03:07:36;15.50;80.60
43808;DHT22;29438;50.664;10.098;2022-07-01T03:10:03;15.50;80.40
43808;DHT22;29438;50.664;10.098;2022-07-01T03:12:29;15.50;80.70
43808;DHT22;29438;50.664;10.098;2022-07-01T03:14:56;15.60;80.30
43808;DHT22;29438;50.664;10.098;2022-07-01T03:17:23;15.50;80.40
43808;DHT22;29438;50.664;10.098;2022-07-01T03:19:48;15.50;80.50
43808;DHT22;29438;50.664;10.098;2022-07-01T03:22:15;15.60;80.10
43808;DHT22;29438;50.664;10.098;2022-07-01T03:24:40;15.60;80.10
43808;DHT22;29438;50.664;10.098;2022-07-01T03:27:06;15.60;79.70
43808;DHT22;29438;50.664;10.098;2022-07-01T03:29:31;15.50;80.00
43808;DHT22;29438;50.664;10.098;2022-07-01T03:31:57;15.50;80.20
43808;DHT22;29438;50.664;10.098;2022-07-01T03:34:22;15.40;80.20
43808;DHT22;29438;50.664;10.098;2022-07-01T03:36:48;15.30;80.40
43808;DHT22;29438;50.664;10.098;2022-07-01T03:39:13;15.30;80.40
43808;DHT22;29438;50.664;10.098;2022-07-01T03:41:39;15.30;80.30
43808;DHT22;29438;50.664;10.098;2022-07-01T03:44:04;15.40;80.30
43808;DHT22;29438;50.664;10.098;2022-07-01T03:46:31;15.30;80.20
43808;DHT22;29438;50.664;10.098;2022-07-01T03:49:00;15.40;80.20
43808;DHT22;29438;50.664;10.098;2022-07-01T03:51:26;15.50;79.90
43808;DHT22;29438;50.664;10.098;2022-07-01T03:53:52;15.50;80.10
43808;DHT22;29438;50.664;10.098;2022-07-01T03:56:36;15.50;80.00
43808;DHT22;29438;50.664;10.098;2022-07-01T03:59:01;15.50;80.30
43808;DHT22;29438;50.664;10.098;2022-07-01T04:01:27;15.50;80.10
43808;DHT22;29438;50.664;10.098;2022-07-01T04:03:52;15.60;80.10
43808;DHT22;29438;50.664;10.098;2022-07-01T04:06:18;15.60;79.80
43808;DHT22;29438;50.664;10.098;2022-07-01T04:08:45;15.70;79.80
43808;DHT22;29438;50.664;10.098;2022-07-01T04:11:11;15.60;79.80
43808;DHT22;29438;50.664;10.098;2022-07-01T04:13:37;15.60;79.90
43808;DHT22;29438;50.664;10.098;2022-07-01T04:16:03;15.50;80.00
43808;DHT22;29438;50.664;10.098;2022-07-01T04:18:29;15.50;80.20
43808;DHT22;29438;50.664;10.098;2022-07-01T04:20:55;15.50;80.40
43808;DHT22;29438;50.664;10.098;2022-07-01T04:23:39;15.60;80.20
43808;DHT22;29438;50.664;10.098;2022-07-01T04:26:05;15.40;80.60
43808;DHT22;29438;50.664;10.098;2022-07-01T04:28:30;15.40;81.00
43808;DHT22;29438;50.664;10.098;2022-07-01T04:30:56;15.50;80.70
43808;DHT22;29438;50.664;10.098;2022-07-01T04:33:22;15.50;81.30
43808;DHT22;29438;50.664;10.098;2022-07-01T04:35:47;15.40;81.80
43808;DHT22;29438;50.664;10.098;2022-07-01T04:38:13;15.40;82.80
43808;DHT22;29438;50.664;10.098;2022-07-01T04:40:38;15.30;83.50
43808;DHT22;29438;50.664;10.098;2022-07-01T04:43:03;15.40;83.70
43808;DHT22;29438;50.664;10.098;2022-07-01T04:45:29;15.30;84.60
43808;DHT22;29438;50.664;10.098;2022-07-01T04:47:54;15.30;84.50
43808;DHT22;29438;50.664;10.098;2022-07-01T04:50:20;15.30;85.20
43808;DHT22;29438;50.664;10.098;2022-07-01T04:52:46;15.30;85.50
43808;DHT22;29438;50.664;10.098;2022-07-01T04:55:11;15.20;85.20
43808;DHT22;29438;50.664;10.098;2022-07-01T04:57:37;15.10;86.20
43808;DHT22;29438;50.664;10.098;2022-07-01T05:00:03;15.20;85.90
43808;DHT22;29438;50.664;10.098;2022-07-01T05:02:28;15.20;86.60
43808;DHT22;29438;50.664;10.098;2022-07-01T05:04:54;15.20;86.80
43808;DHT22;29438;50.664;10.098;2022-07-01T05:07:19;15.10;87.10
43808;DHT22;29438;50.664;10.098;2022-07-01T05:09:57;15.00;87.60
43808;DHT22;29438;50.664;10.098;2022-07-01T05:12:24;15.00;87.40
43808;DHT22;29438;50.664;10.098;2022-07-01T05:14:50;15.00;87.30
43808;DHT22;29438;50.664;10.098;2022-07-01T05:17:16;15.00;88.00
43808;DHT22;29438;50.664;10.098;2022-07-01T05:19:41;14.70;87.70
43808;DHT22;29438;50.664;10.098;2022-07-01T05:22:26;14.70;88.30
43808;DHT22;29438;50.664;10.098;2022-07-01T05:24:51;14.50;88.20
43808;DHT22;29438;50.664;10.098;2022-07-01T05:27:17;14.50;88.60
43808;DHT22;29438;50.664;10.098;2022-07-01T05:29:43;14.50;88.70
43808;DHT22;29438;50.664;10.098;2022-07-01T05:32:08;14.50;89.10
43808;DHT22;29438;50.664;10.098;2022-07-01T05:34:34;14.40;89.10
43808;DHT22;29438;50.664;10.098;2022-07-01T05:37:01;14.50;89.30
43808;DHT22;29438;50.664;10.098;2022-07-01T05:39:27;14.50;89.00
43808;DHT22;29438;50.664;10.098;2022-07-01T05:41:52;14.40;89.00
43808;DHT22;29438;50.664;10.098;2022-07-01T05:44:18;14.40;89.20
43808;DHT22;29438;50.664;10.098;2022-07-01T05:46:43;14.50;89.10
43808;DHT22;29438;50.664;10.098;2022-07-01T05:49:09;14.60;89.40
43808;DHT22;29438;50.664;10.098;2022-07-01T05:51:34;14.60;89.20
43808;DHT22;29438;50.664;10.098;2022-07-01T05:54:00;14.60;88.90
43808;DHT22;29438;50.664;10.098;2022-07-01T05:56:26;14.70;89.10
43808;DHT22;29438;50.664;10.098;2022-07-01T05:58:52;14.60;88.70
43808;DHT22;29438;50.664;10.098;2022-07-01T06:01:18;14.70;88.90
43808;DHT22;29438;50.664;10.098;2022-07-01T06:03:43;14.70;88.40
43808;DHT22;29438;50.664;10.098;2022-07-01T06:06:09;14.70;88.10
43808;DHT22;29438;50.664;10.098;2022-07-01T06:08:34;14.60;88.30
43808;DHT22;29438;50.664;10.098;2022-07-01T06:11:00;14.60;88.10
43808;DHT22;29438;50.664;10.098;2022-07-01T06:13:26;14.80;88.40
43808;DHT22;29438;50.664;10.098;2022-07-01T06:15:51;15.00;88.10
43808;DHT22;29438;50.664;10.098;2022-07-01T06:18:17;15.00;87.50
43808;DHT22;29438;50.664;10.098;2022-07-01T06:20:43;15.00;87.80
43808;DHT22;29438;50.664;10.098;2022-07-01T06:23:08;15.20;87.90
43808;DHT22;29438;50.664;10.098;2022-07-01T06:25:34;15.20;86.60
43808;DHT22;29438;50.664;10.098;2022-07-01T06:27:59;15.20;87.00
43808;DHT22;29438;50.664;10.098;2022-07-01T06:30:25;14.80;87.00
43808;DHT22;29438;50.664;10.098;2022-07-01T06:32:50;14.70;87.20
43808;DHT22;29438;50.664;10.098;2022-07-01T06:35:16;14.80;87.70
43808;DHT22;29438;50.664;10.098;2022-07-01T06:37:41;14.70;87.50
43808;DHT22;29438;50.664;10.098;2022-07-01T06:40:07;14.60;87.30
43808;DHT22;29438;50.664;10.098;2022-07-01T06:42:34;14.40;87.40
43808;DHT22;29438;50.664;10.098;2022-07-01T06:45:00;14.30;88.20
43808;DHT22;29438;50.664;10.098;2022-07-01T06:47:25;14.50;88.20
43808;DHT22;29438;50.664;10.098;2022-07-01T06:49:51;14.40;87.40
43808;DHT22;29438;50.664;10.098;2022-07-01T06:52:17;14.50;87.20
43808;DHT22;29438;50.664;10.098;2022-07-01T06:54:42;14.40;86.40
43808;DHT22;29438;50.664;10.098;2022-07-01T06:57:08;14.50;86.40
43808;DHT22;29438;50.664;10.098;2022-07-01T06:59:33;14.50;86.20
43808;DHT22;29438;50.664;10.098;2022-07-01T07:01:59;14.50;86.70
43808;DHT22;29438;50.664;10.098;2022-07-01T07:04:25;14.50;86.50
43808;DHT22;29438;50.664;10.098;2022-07-01T07:06:50;14.50;86.30
43808;DHT22;29438;50.664;10.098;2022-07-01T07:09:16;14.50;85.40
43808;DHT22;29438;50.664;10.098;2022-07-01T07:11:41;14.70;86.10
43808;DHT22;29438;50.664;10.098;2022-07-01T07:14:07;14.50;85.70
43808;DHT22;29438;50.664;10.098;2022-07-01T07:16:33;14.50;86.20
43808;DHT22;29438;50.664;10.098;2022-07-01T07:18:58;14.50;86.00
43808;DHT22;29438;50.664;10.098;2022-07-01T07:21:24;14.50;86.20
43808;DHT22;29438;50.664;10.098;2022-07-01T07:23:49;14.70;86.40
43808;DHT22;29438;50.664;10.098;2022-07-01T07:26:15;14.70;86.30
43808;DHT22;29438;50.664;10.098;2022-07-01T07:28:40;14.70;85.80
43808;DHT22;29438;50.664;10.098;2022-07-01T07:31:06;14.70;85.00
43808;DHT22;29438;50.664;10.098;2022-07-01T07:33:31;15.00;84.90
43808;DHT22;29438;50.664;10.098;2022-07-01T07:35:57;14.90;84.20
43808;DHT22;29438;50.664;10.098;2022-07-01T07:38:22;14.90;83.90
43808;DHT22;29438;50.664;10.098;2022-07-01T07:40:48;15.00;84.00
43808;DHT22;29438;50.664;10.098;2022-07-01T07:43:13;15.20;83.80
43808;DHT22;29438;50.664;10.098;2022-07-01T07:45:39;15.40;83.90
43808;DHT22;29438;50.664;10.098;2022-07-01T07:48:05;15.60;82.90
43808;DHT22;29438;50.664;10.098;2022-07-01T07:50:32;15.50;81.80
43808;DHT22;29438;50.664;10.098;2022-07-01T07:52:57;15.70;82.10
43808;DHT22;29438;50.664;10.098;2022-07-01T07:55:23;15.70;81.20
43808;DHT22;29438;50.664;10.098;2022-07-01T07:57:49;15.50;81.20
43808;DHT22;29438;50.664;10.098;2022-07-01T08:00:14;15.50;81.40
43808;DHT22;29438;50.664;10.098;2022-07-01T08:02:41;15.70;81.70
43808;DHT22;29438;50.664;10.098;2022-07-01T08:05:08;15.70;80.00
43808;DHT22;29438;50.664;10.098;2022-07-01T08:07:38;15.80;80.90
43808;DHT22;29438;50.664;10.098;2022-07-01T08:10:05;16.40;78.50
43808;DHT22;29438;50.664;10.098;2022-07-01T08:12:31;16.60;78.20
43808;DHT22;29438;50.664;10.098;2022-07-01T08:14:57;16.70;75.10
43808;DHT22;29438;50.664;10.098;2022-07-01T08:17:22;16.90;74.80
43808;DHT22;29438;50.664;10.098;2022-07-01T08:19:47;16.60;75.50
43808;DHT22;29438;50.664;10.098;2022-07-01T08:22:13;16.60;76.30
43808;DHT22;29438;50.664;10.098;2022-07-01T08:24:38;16.20;76.20
43808;DHT22;29438;50.664;10.098;2022-07-01T08:27:04;16.00;77.50
43808;DHT22;29438;50.664;10.098;2022-07-01T08:29:30;15.80;77.10
43808;DHT22;29438;50.664;10.098;2022-07-01T08:31:55;15.80;78.70
43808;DHT22;29438;50.664;10.098;2022-07-01T08:34:21;15.90;79.00
43808;DHT22;29438;50.664;10.098;2022-07-01T08:36:46;15.90;77.90
43808;DHT22;29438;50.664;10.098;2022-07-01T08:39:12;15.70;78.30
43808;DHT22;29438;50.664;10.098;2022-07-01T08:41:40;15.80;79.00
43808;DHT22;29438;50.664;10.098;2022-07-01T08:44:06;15.60;77.50
43808;DHT22;29438;50.664;10.098;2022-07-01T08:46:31;15.40;77.70
43808;DHT22;29438;50.664;10.098;2022-07-01T08:48:57;15.50;78.60
43808;DHT22;29438;50.664;10.098;2022-07-01T08:51:22;15.60;78.80
43808;DHT22;29438;50.664;10.098;2022-07-01T08:53:48;15.60;78.60
43808;DHT22;29438;50.664;10.098;2022-07-01T08:56:15;15.50;78.20
43808;DHT22;29438;50.664;10.098;2022-07-01T08:58:59;15.30;78.30
43808;DHT22;29438;50.664;10.098;2022-07-01T09:01:25;15.30;78.70
43808;DHT22;29438;50.664;10.098;2022-07-01T09:03:56;15.30;79.30
43808;DHT22;29438;50.664;10.098;2022-07-01T09:06:28;15.40;78.10
43808;DHT22;29438;50.664;10.098;2022-07-01T09:08:54;15.30;78.10
43808;DHT22;29438;50.664;10.098;2022-07-01T09:11:23;15.30;78.40
43808;DHT22;29438;50.664;10.098;2022-07-01T09:16:48;15.20;78.40
43808;DHT22;29438;50.664;10.098;2022-07-01T09:19:15;15.10;78.40
43808;DHT22;29438;50.664;10.098;2022-07-01T09:21:42;15.20;78.70
43808;DHT22;29438;50.664;10.098;2022-07-01T09:24:36;15.40;79.20
43808;DHT22;29438;50.664;10.098;2022-07-01T09:27:05;15.50;79.70
43808;DHT22;29438;50.664;10.098;2022-07-01T09:29:36;15.60;79.80
43808;DHT22;29438;50.664;10.098;2022-07-01T09:32:04;15.70;79.50
43808;DHT22;29438;50.664;10.098;2022-07-01T09:34:50;15.80;79.20
43808;DHT22;29438;50.664;10.098;2022-07-01T09:37:18;15.80;79.80
43808;DHT22;29438;50.664;10.098;2022-07-01T09:39:48;15.90;81.00
43808;DHT22;29438;50.664;10.098;2022-07-01T09:42:16;16.30;80.00
43808;DHT22;29438;50.664;10.098;2022-07-01T09:44:55;16.70;78.90
43808;DHT22;29438;50.664;10.098;2022-07-01T09:47:25;16.90;77.50
43808;DHT22;29438;50.664;10.098;2022-07-01T09:49:51;16.90;77.00
43808;DHT22;29438;50.664;10.098;2022-07-01T09:52:18;16.90;77.50
43808;DHT22;29438;50.664;10.098;2022-07-01T09:54:45;17.00;75.30
43808;DHT22;29438;50.664;10.098;2022-07-01T09:57:13;17.10;76.00
43808;DHT22;29438;50.664;10.098;2022-07-01T09:59:38;16.70;77.10
43808;DHT22;29438;50.664;10.098;2022-07-01T10:02:04;16.50;76.30
43808;DHT22;29438;50.664;10.098;2022-07-01T10:04:31;15.80;77.50
43808;DHT22;29438;50.664;10.098;2022-07-01T10:07:07;15.70;80.30
43808;DHT22;29438;50.664;10.098;2022-07-01T10:12:46;15.80;80.80
43808;DHT22;29438;50.664;10.098;2022-07-01T10:15:17;15.70;79.90
43808;DHT22;29438;50.664;10.098;2022-07-01T10:17:46;15.40;81.30
43808;DHT22;29438;50.664;10.098;2022-07-01T10:20:16;15.50;83.20
43808;DHT22;29438;50.664;10.098;2022-07-01T10:22:43;15.40;81.40
43808;DHT22;29438;50.664;10.098;2022-07-01T10:25:33;15.70;83.10
43808;DHT22;29438;50.664;10.098;2022-07-01T10:28:28;16.00;82.10
43808;DHT22;29438;50.664;10.098;2022-07-01T10:31:04;16.30;82.20
43808;DHT22;29438;50.664;10.098;2022-07-01T10:33:44;16.50;80.50
43808;DHT22;29438;50.664;10.098;2022-07-01T10:41:35;17.30;75.70
43808;DHT22;29438;50.664;10.098;2022-07-01T10:44:09;17.40;77.60
43808;DHT22;29438;50.664;10.098;2022-07-01T10:46:48;17.10;76.60
43808;DHT22;29438;50.664;10.098;2022-07-01T10:52:08;16.20;78.70
43808;DHT22;29438;50.664;10.098;2022-07-01T11:04:52;15.90;80.40
43808;DHT22;29438;50.664;10.098;2022-07-01T11:07:18;16.20;79.30
43808;DHT22;29438;50.664;10.098;2022-07-01T11:09:44;16.30;78.20
43808;DHT22;29438;50.664;10.098;2022-07-01T11:12:10;16.20;78.90
43808;DHT22;29438;50.664;10.098;2022-07-01T11:14:42;16.20;79.90
43808;DHT22;29438;50.664;10.098;2022-07-01T11:17:08;16.10;78.70
43808;DHT22;29438;50.664;10.098;2022-07-01T11:19:34;16.20;80.30
43808;DHT22;29438;50.664;10.098;2022-07-01T11:22:00;16.40;79.80
43808;DHT22;29438;50.664;10.098;2022-07-01T11:24:26;16.70;79.70
43808;DHT22;29438;50.664;10.098;2022-07-01T11:26:55;17.00;77.00
43808;DHT22;29438;50.664;10.098;2022-07-01T11:29:26;17.10;76.70
43808;DHT22;29438;50.664;10.098;2022-07-01T11:31:52;17.20;73.50
43808;DHT22;29438;50.664;10.098;2022-07-01T11:34:18;17.20;74.30
43808;DHT22;29438;50.664;10.098;2022-07-01T11:36:45;17.20;75.80
43808;DHT22;29438;50.664;10.098;2022-07-01T11:39:30;17.30;75.10
43808;DHT22;29438;50.664;10.098;2022-07-01T11:42:01;17.30;75.80
43808;DHT22;29438;50.664;10.098;2022-07-01T11:44:41;16.90;75.00
43808;DHT22;29438;50.664;10.098;2022-07-01T11:47:22;16.50;75.60
43808;DHT22;29438;50.664;10.098;2022-07-01T11:49:48;16.10;76.20
43808;DHT22;29438;50.664;10.098;2022-07-01T11:52:15;16.00;77.40
43808;DHT22;29438;50.664;10.098;2022-07-01T11:54:45;16.20;78.60
43808;DHT22;29438;50.664;10.098;2022-07-01T11:57:16;16.20;78.80
43808;DHT22;29438;50.664;10.098;2022-07-01T11:59:43;16.40;78.00
43808;DHT22;29438;50.664;10.098;2022-07-01T12:02:11;16.70;77.50
43808;DHT22;29438;50.664;10.098;2022-07-01T12:04:38;16.70;77.20
43808;DHT22;29438;50.664;10.098;2022-07-01T12:07:05;17.10;77.60
43808;DHT22;29438;50.664;10.098;2022-07-01T12:09:31;17.30;76.30
43808;DHT22;29438;50.664;10.098;2022-07-01T12:11:57;17.10;75.30
43808;DHT22;29438;50.664;10.098;2022-07-01T12:14:33;17.00;75.60
43808;DHT22;29438;50.664;10.098;2022-07-01T12:17:01;16.80;76.10
43808;DHT22;29438;50.664;10.098;2022-07-01T12:19:47;16.60;76.20
43808;DHT22;29438;50.664;10.098;2022-07-01T12:22:18;16.40;77.10
43808;DHT22;29438;50.664;10.098;2022-07-01T12:24:45;16.20;77.00
43808;DHT22;29438;50.664;10.098;2022-07-01T12:27:11;16.10;77.50
43808;DHT22;29438;50.664;10.098;2022-07-01T12:32:22;15.90;77.70
43808;DHT22;29438;50.664;10.098;2022-07-01T12:34:59;15.80;77.90
43808;DHT22;29438;50.664;10.098;2022-07-01T12:37:32;15.70;79.20
43808;DHT22;29438;50.664;10.098;2022-07-01T12:40:20;15.40;78.80
43808;DHT22;29438;50.664;10.098;2022-07-01T12:42:46;15.30;79.80
43808;DHT22;29438;50.664;10.098;2022-07-01T12:45:15;15.30;80.20
43808;DHT22;29438;50.664;10.098;2022-07-01T12:47:46;15.40;80.80
43808;DHT22;29438;50.664;10.098;2022-07-01T12:52:40;15.40;79.90
43808;DHT22;29438;50.664;10.098;2022-07-01T12:55:19;15.60;79.80
43808;DHT22;29438;50.664;10.098;2022-07-01T12:57:53;15.90;80.20
43808;DHT22;29438;50.664;10.098;2022-07-01T13:00:21;16.20;78.70
43808;DHT22;29438;50.664;10.098;2022-07-01T13:02:51;16.70;77.10
43808;DHT22;29438;50.664;10.098;2022-07-01T13:05:17;16.80;76.10
43808;DHT22;29438;50.664;10.098;2022-07-01T13:07:43;16.60;75.60
43808;DHT22;29438;50.664;10.098;2022-07-01T13:10:09;16.50;76.40
43808;DHT22;29438;50.664;10.098;2022-07-01T13:12:35;16.60;76.10
43808;DHT22;29438;50.664;10.098;2022-07-01T13:15:00;16.40;75.00
43808;DHT22;29438;50.664;10.098;2022-07-01T13:17:27;16.30;77.70
43808;DHT22;29438;50.664;10.098;2022-07-01T13:19:52;16.20;76.30
43808;DHT22;29438;50.664;10.098;2022-07-01T13:22:18;15.90;75.90
43808;DHT22;29438;50.664;10.098;2022-07-01T13:24:44;15.80;77.40
43808;DHT22;29438;50.664;10.098;2022-07-01T13:27:09;16.10;76.80
43808;DHT22;29438;50.664;10.098;2022-07-01T13:29:35;16.00;76.10
43808;DHT22;29438;50.664;10.098;2022-07-01T13:32:01;16.20;75.80
43808;DHT22;29438;50.664;10.098;2022-07-01T13:34:26;16.70;75.80
43808;DHT22;29438;50.664;10.098;2022-07-01T13:36:52;17.40;74.50
43808;DHT22;29438;50.664;10.098;2022-07-01T13:39:17;18.00;72.10
43808;DHT22;29438;50.664;10.098;2022-07-01T13:41:43;18.50;69.10
43808;DHT22;29438;50.664;10.098;2022-07-01T13:44:08;18.80;69.30
43808;DHT22;29438;50.664;10.098;2022-07-01T13:46:34;19.20;67.00
43808;DHT22;29438;50.664;10.098;2022-07-01T13:49:01;19.30;65.70
43808;DHT22;29438;50.664;10.098;2022-07-01T13:51:27;19.00;64.10
43808;DHT22;29438;50.664;10.098;2022-07-01T13:53:53;18.20;66.80
43808;DHT22;29438;50.664;10.098;2022-07-01T13:56:19;18.20;69.30
43808;DHT22;29438;50.664;10.098;2022-07-01T13:58:44;17.80;67.40
43808;DHT22;29438;50.664;10.098;2022-07-01T14:01:10;17.70;69.00
43808;DHT22;29438;50.664;10.098;2022-07-01T14:03:35;17.80;67.10
43808;DHT22;29438;50.664;10.098;2022-07-01T14:06:01;18.60;67.40
43808;DHT22;29438;50.664;10.098;2022-07-01T14:08:26;18.50;66.90
43808;DHT22;29438;50.664;10.098;2022-07-01T14:10:53;18.20;65.90
43808;DHT22;29438;50.664;10.098;2022-07-01T14:13:19;18.90;66.40
43808;DHT22;29438;50.664;10.098;2022-07-01T14:15:46;19.70;66.60
43808;DHT22;29438;50.664;10.098;2022-07-01T14:18:12;20.00;62.40
43808;DHT22;29438;50.664;10.098;2022-07-01T14:20:39;20.20;59.20
43808;DHT22;29438;50.664;10.098;2022-07-01T14:23:05;20.10;60.20
43808;DHT22;29438;50.664;10.098;2022-07-01T14:25:31;19.90;58.00
43808;DHT22;29438;50.664;10.098;2022-07-01T14:27:56;19.30;61.40
43808;DHT22;29438;50.664;10.098;2022-07-01T14:30:22;19.20;62.00
43808;DHT22;29438;50.664;10.098;2022-07-01T14:32:48;19.30;60.00
43808;DHT22;29438;50.664;10.098;2022-07-01T14:35:13;19.30;60.90
43808;DHT22;29438;50.664;10.098;2022-07-01T14:37:39;19.50;60.30
43808;DHT22;29438;50.664;10.098;2022-07-01T14:40:05;19.60;61.50
43808;DHT22;29438;50.664;10.098;2022-07-01T14:42:31;19.70;60.10
43808;DHT22;29438;50.664;10.098;2022-07-01T14:44:57;19.60;57.50
43808;DHT22;29438;50.664;10.098;2022-07-01T14:47:23;19.50;59.20
43808;DHT22;29438;50.664;10.098;2022-07-01T14:49:49;19.30;58.90
43808;DHT22;29438;50.664;10.098;2022-07-01T14:52:17;19.10;60.00
43808;DHT22;29438;50.664;10.098;2022-07-01T14:54:45;19.20;59.20
43808;DHT22;29438;50.664;10.098;2022-07-01T14:57:11;19.20;60.80
43808;DHT22;29438;50.664;10.098;2022-07-01T14:59:36;19.50;59.70
43808;DHT22;29438;50.664;10.098;2022-07-01T15:02:02;19.80;58.00
43808;DHT22;29438;50.664;10.098;2022-07-01T15:04:32;20.30;58.10
43808;DHT22;29438;50.664;10.098;2022-07-01T15:06:58;21.00;58.50
43808;DHT22;29438;50.664;10.098;2022-07-01T15:09:23;21.30;55.50
43808;DHT22;29438;50.664;10.098;2022-07-01T15:11:49;21.10;54.50
43808;DHT22;29438;50.664;10.098;2022-07-01T15:14:15;20.70;54.90
43808;DHT22;29438;50.664;10.098;2022-07-01T15:16:41;20.70;55.30
43808;DHT22;29438;50.664;10.098;2022-07-01T15:19:06;20.40;57.30
43808;DHT22;29438;50.664;10.098;2022-07-01T15:21:32;20.20;57.20
43808;DHT22;29438;50.664;10.098;2022-07-01T15:23:58;19.80;58.60
43808;DHT22;29438;50.664;10.098;2022-07-01T15:26:23;19.90;56.20
43808;DHT22;29438;50.664;10.098;2022-07-01T15:28:49;19.50;58.20
43808;DHT22;29438;50.664;10.098;2022-07-01T15:31:15;19.50;57.60
43808;DHT22;29438;50.664;10.098;2022-07-01T15:33:41;19.40;59.90
43808;DHT22;29438;50.664;10.098;2022-07-01T15:36:07;19.70;59.50
43808;DHT22;29438;50.664;10.098;2022-07-01T15:38:34;19.70;57.10
43808;DHT22;29438;50.664;10.098;2022-07-01T15:40:59;19.90;56.30
43808;DHT22;29438;50.664;10.098;2022-07-01T15:43:27;20.00;56.70